Time;durP1;ratioP1;P1;durP2;ratioP2;P2;SDS_P1;SDS_P2;PMS_P1;PMS_P2;Temp;Humidity;BMP_temperature;BMP_pressure;BME280_temperature;BME280_humidity;BME280_pressure;Samples;Min_cycle;Max_cycle;Signal;HPM_P1;HPM_P2
2022/05/07 00:00:38;;;;;;;14.63;12.13;;;16.30;99.90;;;;;;5094554;28;20024;-58
2022/05/07 00:03:04;;;;;;;14.20;12.23;;;16.30;99.90;;;;;;5094497;28;20028;-58
2022/05/07 00:05:31;;;;;;;16.17;14.35;;;16.30;99.90;;;;;;5094780;28;20111;-58
2022/05/07 00:07:57;;;;;;;13.93;10.77;;;16.20;99.90;;;;;;5094561;28;20203;-58
2022/05/07 00:10:23;;;;;;;12.23;10.93;;;16.20;99.90;;;;;;5094637;28;20115;-58
2022/05/07 00:12:49;;;;;;;16.00;14.10;;;16.20;99.90;;;;;;5094681;28;20067;-58
2022/05/07 00:15:15;;;;;;;15.50;13.73;;;16.30;99.90;;;;;;5094559;28;20486;-58
2022/05/07 00:20:24;;;;;;;11.18;9.75;;;16.10;99.90;;;;;;5094731;28;20103;-58
2022/05/07 00:22:50;;;;;;;14.93;13.32;;;16.10;99.90;;;;;;5094313;28;20111;-59
2022/05/07 00:25:16;;;;;;;11.00;9.90;;;16.10;99.90;;;;;;5094418;28;20514;-58
2022/05/07 00:27:42;;;;;;;13.32;11.63;;;16.10;99.90;;;;;;5093920;28;20376;-58
2022/05/07 00:30:08;;;;;;;10.15;9.15;;;16.20;99.90;;;;;;5094182;28;20024;-58
2022/05/07 00:32:34;;;;;;;9.65;8.43;;;16.10;99.90;;;;;;5094288;28;20031;-58
2022/05/07 00:35:00;;;;;;;8.85;8.00;;;16.20;99.90;;;;;;5094125;28;20432;-58
2022/05/07 00:37:26;;;;;;;11.13;9.38;;;16.30;99.90;;;;;;5094202;28;20025;-58
2022/05/07 00:39:52;;;;;;;12.00;10.70;;;16.30;99.90;;;;;;5093935;28;20035;-58
2022/05/07 00:42:19;;;;;;;11.93;9.75;;;16.30;99.90;;;;;;5093591;28;20171;-58
2022/05/07 00:44:46;;;;;;;12.02;10.75;;;16.30;99.90;;;;;;5094014;28;20034;-58
2022/05/07 00:47:14;;;;;;;19.33;16.00;;;16.30;99.90;;;;;;5094166;28;20062;-58
2022/05/07 00:49:56;;;;;;;15.10;13.55;;;16.20;99.90;;;;;;5093957;28;20028;-58
2022/05/07 00:52:22;;;;;;;12.13;10.13;;;16.00;99.90;;;;;;5093803;28;20410;-58
2022/05/07 00:54:48;;;;;;;14.13;11.93;;;16.00;99.90;;;;;;5093707;28;20031;-58
2022/05/07 00:57:15;;;;;;;11.35;10.25;;;16.00;99.90;;;;;;5093284;28;20051;-58
2022/05/07 00:59:42;;;;;;;11.82;10.57;;;16.00;99.90;;;;;;5093725;28;20024;-58
2022/05/07 01:02:08;;;;;;;13.98;11.82;;;16.00;99.90;;;;;;5093421;28;20032;-58
2022/05/07 01:04:36;;;;;;;10.70;9.60;;;16.00;99.90;;;;;;5093878;28;20027;-58
2022/05/07 01:07:02;;;;;;;9.32;8.32;;;16.00;99.90;;;;;;5093829;28;20074;-58
2022/05/07 01:09:29;;;;;;;11.43;8.48;;;16.10;99.90;;;;;;5093696;28;20103;-58
2022/05/07 01:11:55;;;;;;;8.48;7.70;;;16.20;99.90;;;;;;5093621;28;20024;-58
2022/05/07 01:14:21;;;;;;;8.73;7.82;;;16.10;99.90;;;;;;5093752;28;20081;-58
2022/05/07 01:16:46;;;;;;;10.43;8.27;;;16.20;99.90;;;;;;5093560;28;20502;-58
2022/05/07 01:19:12;;;;;;;11.93;9.20;;;16.20;99.90;;;;;;5093531;28;20016;-58
2022/05/07 01:21:38;;;;;;;10.13;9.13;;;16.30;99.90;;;;;;5093330;28;20101;-58
2022/05/07 01:24:04;;;;;;;10.15;8.85;;;16.20;99.90;;;;;;5093432;28;20024;-58
2022/05/07 01:26:30;;;;;;;9.88;8.20;;;16.20;99.90;;;;;;5093061;28;20020;-58
2022/05/07 01:29:00;;;;;;;8.88;7.97;;;16.20;99.90;;;;;;5093272;28;20028;-58
2022/05/07 01:31:29;;;;;;;9.57;8.57;;;16.20;99.90;;;;;;5093531;28;20461;-58
2022/05/07 01:33:55;;;;;;;9.60;7.30;;;16.20;99.90;;;;;;5093559;28;20021;-58
2022/05/07 01:36:21;;;;;;;9.55;8.65;;;16.20;99.90;;;;;;5093205;28;20505;-58
2022/05/07 01:38:48;;;;;;;9.88;8.85;;;16.30;99.90;;;;;;5093528;28;20020;-58
2022/05/07 01:41:14;;;;;;;15.38;10.65;;;16.20;99.90;;;;;;5093238;28;20032;-58
2022/05/07 01:43:40;;;;;;;12.60;10.85;;;16.20;99.90;;;;;;5093166;28;20475;-58
2022/05/07 01:48:09;;;;;;;11.30;9.35;;;16.20;99.90;;;;;;5093172;28;20090;-58
2022/05/07 01:48:54;;;;;;;15.63;12.07;;;16.10;99.90;;;;;;5093206;28;20027;-58
2022/05/07 01:51:20;;;;;;;27.25;19.73;;;16.10;99.90;;;;;;5093078;28;20024;-58
2022/05/07 01:53:46;;;;;;;20.55;15.85;;;16.00;99.90;;;;;;5097058;28;20024;-58
2022/05/07 01:56:12;;;;;;;20.23;15.32;;;15.80;99.90;;;;;;5096820;28;20040;-58
2022/05/07 01:58:38;;;;;;;20.35;15.18;;;15.80;99.90;;;;;;5097077;28;20054;-58
2022/05/07 02:01:03;;;;;;;14.20;12.60;;;15.70;99.90;;;;;;5096904;28;20436;-58
2022/05/07 02:03:29;;;;;;;15.98;13.07;;;15.60;99.90;;;;;;5096912;28;20028;-58
2022/05/07 02:05:56;;;;;;;16.30;13.90;;;15.50;99.90;;;;;;5096995;28;20078;-58
2022/05/07 02:08:22;;;;;;;20.40;15.75;;;15.60;99.90;;;;;;5096869;28;20024;-58
2022/05/07 02:10:47;;;;;;;18.92;14.35;;;15.60;99.90;;;;;;5096914;28;20024;-58
2022/05/07 02:13:13;;;;;;;15.32;13.18;;;15.50;99.90;;;;;;5096833;28;20356;-58
2022/05/07 02:15:39;;;;;;;15.98;12.73;;;15.50;99.90;;;;;;5096762;28;20024;-58
2022/05/07 02:18:05;;;;;;;15.40;12.45;;;15.40;99.90;;;;;;5096658;28;20159;-58
2022/05/07 02:20:30;;;;;;;12.70;11.40;;;15.40;99.90;;;;;;5096899;28;20024;-58
2022/05/07 02:22:57;;;;;;;9.25;8.35;;;15.40;99.90;;;;;;5096589;28;20103;-58
2022/05/07 02:25:23;;;;;;;9.30;8.30;;;15.50;99.90;;;;;;5096328;28;20024;-58
2022/05/07 02:27:50;;;;;;;15.82;12.32;;;15.60;99.90;;;;;;5096801;28;20085;-58
2022/05/07 02:30:19;;;;;;;11.80;10.57;;;15.70;99.90;;;;;;5096761;28;20024;-58
2022/05/07 02:32:46;;;;;;;10.20;8.88;;;15.70;99.90;;;;;;5096612;28;20043;-58
2022/05/07 02:35:12;;;;;;;11.18;9.60;;;15.80;99.90;;;;;;5096839;28;20074;-58
2022/05/07 02:37:37;;;;;;;12.82;11.10;;;15.80;99.90;;;;;;5096122;28;20020;-58
2022/05/07 02:40:04;;;;;;;12.40;10.43;;;15.70;99.90;;;;;;5096249;28;20020;-58
2022/05/07 02:42:41;;;;;;;14.95;10.52;;;15.60;99.90;;;;;;5096407;28;20028;-58
2022/05/07 02:45:11;;;;;;;9.23;8.25;;;15.60;99.90;;;;;;5096135;28;20066;-58
2022/05/07 02:47:39;;;;;;;8.93;7.95;;;15.60;99.90;;;;;;5096434;28;20026;-58
2022/05/07 02:50:06;;;;;;;8.23;7.35;;;15.70;99.90;;;;;;5096376;28;20016;-58
2022/05/07 02:52:33;;;;;;;12.60;11.30;;;15.70;99.90;;;;;;5096045;28;20122;-58
2022/05/07 02:55:04;;;;;;;9.90;8.90;;;15.80;99.90;;;;;;5096089;28;20386;-58
2022/05/07 02:57:29;;;;;;;9.35;8.45;;;15.70;99.90;;;;;;5095753;28;20055;-58
2022/05/07 02:59:55;;;;;;;9.25;8.35;;;15.70;99.90;;;;;;5096076;28;20020;-58
2022/05/07 03:02:21;;;;;;;7.60;6.90;;;15.70;99.90;;;;;;5095993;28;20032;-58
2022/05/07 03:04:48;;;;;;;8.85;7.07;;;15.80;99.90;;;;;;5094645;28;20363;-58
2022/05/07 03:07:15;;;;;;;7.88;7.03;;;15.80;99.90;;;;;;5095522;28;20065;-58
2022/05/07 03:09:40;;;;;;;7.95;7.15;;;15.90;99.90;;;;;;5095668;28;20040;-58
2022/05/07 03:12:06;;;;;;;7.75;6.40;;;16.00;99.90;;;;;;5095565;28;20020;-58
2022/05/07 03:14:32;;;;;;;6.95;6.25;;;16.00;99.90;;;;;;5095716;28;20020;-58
2022/05/07 03:16:59;;;;;;;6.60;5.93;;;16.00;99.90;;;;;;5095537;28;20047;-58
2022/05/07 03:19:25;;;;;;;6.80;6.10;;;16.00;99.90;;;;;;5095855;28;20020;-58
2022/05/07 03:21:50;;;;;;;9.15;8.05;;;16.00;99.90;;;;;;5095184;28;20035;-58
2022/05/07 03:24:16;;;;;;;9.25;7.70;;;16.00;99.90;;;;;;5095405;28;20032;-58
2022/05/07 03:26:42;;;;;;;16.60;12.77;;;16.10;99.90;;;;;;5095710;28;20016;-58
2022/05/07 03:29:08;;;;;;;13.55;11.82;;;16.00;99.90;;;;;;5095640;28;20498;-58
2022/05/07 03:31:34;;;;;;;10.18;8.73;;;15.90;99.90;;;;;;5095491;28;20390;-58
2022/05/07 03:34:00;;;;;;;8.82;7.93;;;15.80;99.90;;;;;;5095268;28;20035;-58
2022/05/07 03:36:25;;;;;;;7.93;7.20;;;15.80;99.90;;;;;;5095111;28;20020;-58
2022/05/07 03:38:51;;;;;;;9.25;8.00;;;15.90;99.90;;;;;;5095145;28;20020;-58
2022/05/07 03:41:19;;;;;;;10.43;9.30;;;15.90;99.90;;;;;;5095114;28;20095;-58
2022/05/07 03:43:45;;;;;;;10.95;9.85;;;15.90;99.90;;;;;;5095077;28;20530;-58
2022/05/07 03:46:10;;;;;;;9.02;8.13;;;15.90;99.90;;;;;;5094954;28;20020;-58
2022/05/07 03:48:36;;;;;;;9.77;7.53;;;15.80;99.90;;;;;;5095035;28;20028;-58
2022/05/07 03:51:02;;;;;;;12.40;11.07;;;15.80;99.90;;;;;;5094658;28;20073;-58
2022/05/07 03:53:30;;;;;;;13.40;11.73;;;15.90;99.90;;;;;;5095229;28;20028;-58
2022/05/07 03:56:01;;;;;;;12.75;11.45;;;15.80;99.90;;;;;;5094605;28;20517;-58
2022/05/07 03:58:27;;;;;;;14.45;12.35;;;15.70;99.90;;;;;;5094781;28;20059;-58
2022/05/07 04:00:54;;;;;;;13.40;10.50;;;15.70;99.90;;;;;;5094735;28;20054;-58
2022/05/07 04:03:20;;;;;;;11.48;9.68;;;15.70;99.90;;;;;;5094670;28;20473;-58
2022/05/07 04:05:47;;;;;;;9.07;8.18;;;15.70;99.90;;;;;;5094726;28;20020;-58
2022/05/07 04:08:12;;;;;;;9.60;8.65;;;15.70;99.90;;;;;;5094647;28;20024;-58
2022/05/07 04:10:38;;;;;;;8.10;7.30;;;15.80;99.90;;;;;;5094763;28;20031;-58
2022/05/07 04:13:04;;;;;;;7.32;6.63;;;15.90;99.90;;;;;;5094487;28;20033;-58
2022/05/07 04:15:30;;;;;;;7.22;6.53;;;15.90;99.90;;;;;;5094230;28;20072;-58
2022/05/07 04:17:56;;;;;;;14.27;10.77;;;16.00;99.90;;;;;;5094319;28;20020;-58
2022/05/07 04:20:22;;;;;;;10.00;8.38;;;16.00;99.90;;;;;;5094278;28;20020;-58
2022/05/07 04:22:47;;;;;;;11.88;9.23;;;16.00;99.90;;;;;;5094518;28;20085;-58
2022/05/07 04:25:13;;;;;;;11.15;10.05;;;15.90;99.90;;;;;;5094118;28;20478;-58
2022/05/07 04:27:39;;;;;;;9.80;8.82;;;15.90;99.90;;;;;;5094249;28;20020;-58
2022/05/07 04:30:05;;;;;;;9.45;8.55;;;15.90;99.90;;;;;;5094465;28;20079;-58
2022/05/07 04:32:31;;;;;;;10.05;9.05;;;15.90;99.90;;;;;;5094007;28;20062;-58
2022/05/07 04:34:57;;;;;;;9.93;9.00;;;16.00;99.90;;;;;;5094205;28;20382;-58
2022/05/07 04:37:24;;;;;;;11.77;10.30;;;16.00;99.90;;;;;;5094170;28;20031;-58
2022/05/07 04:39:49;;;;;;;10.00;8.63;;;16.00;99.90;;;;;;5093954;28;20097;-58
2022/05/07 04:42:15;;;;;;;8.55;7.75;;;16.00;99.90;;;;;;5093849;28;20063;-58
2022/05/07 04:44:41;;;;;;;9.95;8.95;;;16.00;99.90;;;;;;5094057;28;20055;-58
2022/05/07 04:47:07;;;;;;;10.02;9.02;;;16.10;99.90;;;;;;5094027;28;20393;-58
2022/05/07 04:49:33;;;;;;;12.43;9.07;;;16.20;99.90;;;;;;5093776;28;20020;-58
2022/05/07 04:51:59;;;;;;;11.65;10.45;;;16.20;99.90;;;;;;5093745;28;20532;-58
2022/05/07 04:54:25;;;;;;;12.82;10.20;;;16.10;99.90;;;;;;5093743;28;20024;-58
2022/05/07 04:56:52;;;;;;;9.23;8.32;;;16.10;99.90;;;;;;5093489;28;20540;-58
2022/05/07 04:59:19;;;;;;;10.85;8.70;;;16.10;99.90;;;;;;5093649;28;20547;-58
2022/05/07 05:01:46;;;;;;;7.78;7.07;;;16.20;99.90;;;;;;5093602;28;20107;-58
2022/05/07 05:04:12;;;;;;;8.32;7.53;;;16.30;99.90;;;;;;5093596;28;20035;-58
2022/05/07 05:06:38;;;;;;;7.03;6.32;;;16.30;99.90;;;;;;5093632;28;20027;-58
2022/05/07 05:09:05;;;;;;;6.55;5.95;;;16.40;99.90;;;;;;5093857;28;20016;-58
2022/05/07 05:11:32;;;;;;;7.20;6.55;;;16.50;99.90;;;;;;5093423;28;20028;-58
2022/05/07 05:13:58;;;;;;;6.50;5.90;;;16.60;99.90;;;;;;5093647;28;20111;-58
2022/05/07 05:16:24;;;;;;;7.63;6.40;;;16.60;99.90;;;;;;5093608;28;20099;-58
2022/05/07 05:18:50;;;;;;;5.53;5.05;;;16.60;99.90;;;;;;5093374;28;20108;-58
2022/05/07 05:21:16;;;;;;;10.50;7.10;;;16.70;99.90;;;;;;5093493;28;20527;-58
2022/05/07 05:23:42;;;;;;;11.45;8.77;;;16.70;99.90;;;;;;5093645;28;20047;-58
2022/05/07 05:26:08;;;;;;;9.23;8.30;;;16.70;99.90;;;;;;5093203;28;20463;-58
2022/05/07 05:28:35;;;;;;;10.55;8.98;;;16.60;99.90;;;;;;5093022;28;20020;-58
2022/05/07 05:31:02;;;;;;;9.98;7.72;;;16.60;99.90;;;;;;5093315;28;20032;-58
2022/05/07 05:33:28;;;;;;;7.38;6.65;;;16.60;99.90;;;;;;5093175;28;20020;-58
2022/05/07 05:35:54;;;;;;;9.77;8.77;;;16.70;99.90;;;;;;5093465;28;20032;-58
2022/05/07 05:38:19;;;;;;;9.27;8.02;;;16.70;99.90;;;;;;5093355;28;20028;-58
2022/05/07 05:40:45;;;;;;;7.70;6.90;;;16.60;99.90;;;;;;5093231;28;20074;-58
2022/05/07 05:43:11;;;;;;;9.98;7.88;;;16.70;99.90;;;;;;5093205;28;20027;-58
2022/05/07 05:45:37;;;;;;;12.40;10.93;;;16.80;99.90;;;;;;5093179;28;20028;-58
2022/05/07 05:48:04;;;;;;;14.73;12.75;;;16.90;99.90;;;;;;5093141;28;20031;-58
2022/05/07 05:50:30;;;;;;;11.15;9.90;;;16.90;99.90;;;;;;5093121;28;20016;-58
2022/05/07 05:52:59;;;;;;;11.38;9.52;;;17.00;99.90;;;;;;5093467;28;20103;-58
2022/05/07 05:55:25;;;;;;;10.48;9.38;;;17.10;99.90;;;;;;5092913;28;20047;-58
2022/05/07 05:57:51;;;;;;;10.50;9.50;;;17.20;99.90;;;;;;5093293;28;20059;-58
2022/05/07 06:00:17;;;;;;;9.82;8.82;;;17.40;99.90;;;;;;5093173;28;20085;-58
2022/05/07 06:02:44;;;;;;;9.85;8.85;;;17.50;99.90;;;;;;5092726;28;20474;-58
2022/05/07 06:05:10;;;;;;;9.45;8.57;;;17.60;99.90;;;;;;5092853;28;20028;-58
2022/05/07 06:07:36;;;;;;;7.68;6.97;;;17.70;99.90;;;;;;5093264;28;20028;-58
2022/05/07 06:10:03;;;;;;;7.90;7.20;;;17.80;99.90;;;;;;5092992;28;20023;-58
2022/05/07 06:12:28;;;;;;;6.95;6.35;;;17.90;99.90;;;;;;5093172;28;20059;-58
2022/05/07 06:14:55;;;;;;;7.15;6.47;;;18.00;99.90;;;;;;5093162;28;20737;-58
2022/05/07 06:17:21;;;;;;;8.85;7.95;;;18.20;99.90;;;;;;5092664;28;20047;-58
2022/05/07 06:19:47;;;;;;;10.52;9.43;;;18.50;99.90;;;;;;5092863;28;20101;-58
2022/05/07 06:22:12;;;;;;;7.93;7.18;;;18.80;99.90;;;;;;5092712;28;20028;-58
2022/05/07 06:27:28;;;;;;;9.45;8.38;;;19.30;99.90;;;;;;5092756;28;20023;-58
2022/05/07 06:29:54;;;;;;;6.82;6.13;;;19.50;99.90;;;;;;5092827;28;20055;-58
2022/05/07 06:32:20;;;;;;;7.05;6.35;;;19.70;99.90;;;;;;5092588;28;20106;-58
2022/05/07 06:34:46;;;;;;;8.27;7.55;;;19.70;99.90;;;;;;5092625;28;20095;-59
2022/05/07 06:37:12;;;;;;;9.52;8.55;;;19.90;99.90;;;;;;5092584;28;20454;-58
2022/05/07 06:39:39;;;;;;;11.27;10.15;;;19.80;99.90;;;;;;5096134;28;20478;-58
2022/05/07 06:42:05;;;;;;;9.85;8.85;;;19.60;99.90;;;;;;5096142;28;20028;-58
2022/05/07 06:44:31;;;;;;;8.20;7.28;;;19.60;99.90;;;;;;5096197;28;20489;-58
2022/05/07 06:46:57;;;;;;;8.48;7.55;;;19.70;99.90;;;;;;5096055;28;20040;-58
2022/05/07 06:49:23;;;;;;;7.55;6.85;;;19.90;99.90;;;;;;5096120;28;20044;-58
2022/05/07 06:51:49;;;;;;;8.20;7.50;;;20.20;99.90;;;;;;5096040;28;20085;-58
2022/05/07 06:54:15;;;;;;;11.77;8.50;;;20.50;99.90;;;;;;5096353;28;20028;-58
2022/05/07 06:56:41;;;;;;;7.20;6.50;;;21.00;99.90;;;;;;5095668;28;20452;-58
2022/05/07 06:59:07;;;;;;;7.28;6.50;;;22.20;99.90;;;;;;5096148;28;20109;-58
2022/05/07 07:01:34;;;;;;;6.13;5.53;;;23.10;99.90;;;;;;5095603;28;20023;-58
2022/05/07 07:03:59;;;;;;;5.22;4.72;;;23.10;99.70;;;;;;5095850;28;20024;-58
2022/05/07 07:06:25;;;;;;;5.75;5.07;;;23.10;97.10;;;;;;5096001;28;20030;-58
2022/05/07 07:08:52;;;;;;;5.70;5.20;;;23.10;95.90;;;;;;5095769;28;20368;-58
2022/05/07 07:11:20;;;;;;;5.00;4.50;;;22.80;95.00;;;;;;5095752;28;20071;-58
2022/05/07 07:13:46;;;;;;;5.60;5.10;;;22.60;95.80;;;;;;5095603;28;20069;-59
2022/05/07 07:16:13;;;;;;;5.25;4.72;;;22.20;95.40;;;;;;5095536;28;20107;-58
2022/05/07 07:18:38;;;;;;;5.18;4.68;;;21.80;96.60;;;;;;5095873;28;20158;-58
2022/05/07 07:21:04;;;;;;;4.88;4.47;;;21.60;98.30;;;;;;5095685;28;20518;-58
2022/05/07 07:23:30;;;;;;;5.15;4.32;;;21.50;98.80;;;;;;5095547;28;20055;-58
2022/05/07 07:25:57;;;;;;;6.65;5.85;;;21.40;97.90;;;;;;5095759;28;20027;-58
2022/05/07 07:28:23;;;;;;;5.05;4.63;;;21.40;97.20;;;;;;5095591;28;20418;-58
2022/05/07 07:30:49;;;;;;;5.40;4.35;;;21.40;98.10;;;;;;5095184;28;20527;-58
2022/05/07 07:33:15;;;;;;;4.20;3.80;;;21.40;98.80;;;;;;5095293;28;20031;-58
2022/05/07 07:35:44;;;;;;;4.88;4.05;;;21.60;99.00;;;;;;5095431;28;20028;-59
2022/05/07 07:38:11;;;;;;;4.97;4.25;;;21.80;98.90;;;;;;5095457;28;20016;-58
2022/05/07 07:40:37;;;;;;;4.95;4.47;;;21.90;98.20;;;;;;5095284;28;20239;-59
2022/05/07 07:43:03;;;;;;;4.55;4.15;;;22.10;99.00;;;;;;5095099;28;20024;-58
2022/05/07 07:48:15;;;;;;;4.13;3.80;;;22.50;95.20;;;;;;5095307;28;20099;-58
2022/05/07 07:50:41;;;;;;;5.05;3.78;;;22.60;95.70;;;;;;5094628;28;20020;-59
2022/05/07 07:53:11;;;;;;;5.85;4.25;;;22.60;95.80;;;;;;5095143;28;20440;-58
2022/05/07 07:55:38;;;;;;;7.78;4.63;;;22.80;94.80;;;;;;5094849;28;20043;-58
2022/05/07 07:58:06;;;;;;;6.78;4.70;;;23.00;95.00;;;;;;5094796;28;20024;-58
2022/05/07 08:00:35;;;;;;;5.18;4.47;;;23.20;96.00;;;;;;5094734;28;20020;-58
2022/05/07 08:03:08;;;;;;;5.00;4.10;;;23.30;95.00;;;;;;5094417;28;20494;-58
2022/05/07 08:05:36;;;;;;;4.75;3.80;;;23.60;95.20;;;;;;5094974;28;20023;-59
2022/05/07 08:13:37;;;;;;;4.20;3.40;;;24.10;88.90;;;;;;5094281;28;20086;-58
2022/05/07 08:16:04;;;;;;;3.42;3.08;;;23.70;90.80;;;;;;5094766;28;20020;-58
2022/05/07 08:18:30;;;;;;;4.85;4.28;;;23.40;90.70;;;;;;5094451;28;20012;-58
2022/05/07 08:20:56;;;;;;;5.30;4.80;;;23.30;89.70;;;;;;5094598;28;20028;-59
2022/05/07 08:23:22;;;;;;;4.95;4.50;;;22.80;91.80;;;;;;5094236;28;20466;-58
2022/05/07 08:25:49;;;;;;;4.68;4.28;;;22.40;92.50;;;;;;5094584;28;20058;-58
2022/05/07 08:28:18;;;;;;;4.10;3.70;;;22.10;92.90;;;;;;5094011;28;20103;-58
2022/05/07 08:30:44;;;;;;;4.32;3.88;;;22.00;95.40;;;;;;5094474;28;20030;-58
2022/05/07 08:33:10;;;;;;;4.18;3.80;;;22.10;95.60;;;;;;5094461;28;20119;-58
2022/05/07 08:35:35;;;;;;;3.80;3.50;;;22.20;94.90;;;;;;5094311;28;20028;-59
2022/05/07 08:38:01;;;;;;;4.20;3.80;;;22.40;94.70;;;;;;5094319;28;20109;-58
2022/05/07 08:40:27;;;;;;;4.07;3.78;;;22.40;94.70;;;;;;5094312;28;20024;-58
2022/05/07 08:42:55;;;;;;;3.65;3.35;;;22.60;93.80;;;;;;5093731;28;20550;-58
2022/05/07 08:45:21;;;;;;;4.88;4.38;;;22.90;95.30;;;;;;5093899;28;20020;-58
2022/05/07 08:47:51;;;;;;;6.85;4.25;;;22.60;93.40;;;;;;5093926;28;20027;-58
2022/05/07 08:50:18;;;;;;;4.95;4.55;;;22.80;94.40;;;;;;5094153;28;20028;-58
2022/05/07 08:52:45;;;;;;;5.55;5.15;;;22.80;94.00;;;;;;5093773;28;20031;-58
2022/05/07 08:55:16;;;;;;;5.38;4.80;;;22.60;94.90;;;;;;5093876;28;20031;-58
2022/05/07 08:57:45;;;;;;;5.20;4.50;;;22.50;95.20;;;;;;5093787;28;20382;-58
2022/05/07 09:00:12;;;;;;;6.95;5.95;;;22.60;94.20;;;;;;5093965;28;20095;-58
2022/05/07 09:02:42;;;;;;;5.53;5.03;;;22.60;93.90;;;;;;5092575;28;20039;-58
2022/05/07 09:05:10;;;;;;;6.70;5.60;;;22.50;94.90;;;;;;5093562;28;20050;-58
2022/05/07 09:07:50;;;;;;;7.57;5.50;;;22.60;94.30;;;;;;5093878;28;20020;-58
2022/05/07 09:10:16;;;;;;;5.03;4.63;;;22.40;93.80;;;;;;5093396;28;20073;-59
2022/05/07 09:12:41;;;;;;;5.15;4.65;;;22.10;95.10;;;;;;5093699;28;20020;-58
2022/05/07 09:15:08;;;;;;;5.32;4.82;;;22.20;95.00;;;;;;5093617;28;20048;-58
2022/05/07 09:17:36;;;;;;;4.40;4.00;;;22.40;95.00;;;;;;5093604;28;20020;-58
2022/05/07 09:20:12;;;;;;;5.53;4.75;;;22.50;94.90;;;;;;5093406;28;20398;-58
2022/05/07 09:22:56;;;;;;;5.60;5.05;;;22.70;96.50;;;;;;5093285;28;20093;-58
2022/05/07 09:25:26;;;;;;;6.03;5.38;;;22.80;93.00;;;;;;5093397;28;20059;-58
2022/05/07 09:27:59;;;;;;;4.80;4.40;;;22.90;93.40;;;;;;5093673;28;20024;-58
2022/05/07 09:30:27;;;;;;;5.15;4.75;;;23.10;93.10;;;;;;5093336;28;20032;-58
2022/05/07 09:32:55;;;;;;;5.57;5.07;;;23.20;92.80;;;;;;5093270;28;20039;-59
2022/05/07 09:38:11;;;;;;;7.05;6.35;;;23.20;90.30;;;;;;5093682;28;20031;-58
2022/05/07 09:40:39;;;;;;;7.32;5.85;;;23.00;89.00;;;;;;5093301;28;20035;-58
2022/05/07 09:43:05;;;;;;;6.05;5.55;;;23.10;91.30;;;;;;5093113;28;20060;-58
2022/05/07 09:45:32;;;;;;;7.03;6.13;;;23.30;92.90;;;;;;5093157;28;20016;-58
2022/05/07 09:47:58;;;;;;;5.78;5.25;;;23.00;90.30;;;;;;5093201;28;20474;-58
2022/05/07 09:58:48;;;;;;;8.18;6.30;;;22.50;91.50;;;;;;5093037;28;20513;-58
2022/05/07 10:01:32;;;;;;;6.50;5.90;;;22.30;90.80;;;;;;5092956;28;20016;-58
2022/05/07 10:04:29;;;;;;;7.90;6.30;;;22.10;90.30;;;;;;5093092;28;20034;-58
2022/05/07 10:07:17;;;;;;;5.75;5.25;;;22.10;91.60;;;;;;5093047;28;20016;-58
2022/05/07 10:10:04;;;;;;;5.63;5.13;;;22.10;91.50;;;;;;5092747;28;20497;-58
2022/05/07 10:12:30;;;;;;;7.28;6.57;;;22.10;91.20;;;;;;5093089;28;20117;-58
2022/05/07 10:15:11;;;;;;;6.47;5.88;;;22.30;91.70;;;;;;5096791;28;20157;-58
2022/05/07 10:17:37;;;;;;;7.40;6.68;;;22.30;91.80;;;;;;5096810;28;20028;-58
2022/05/07 10:20:09;;;;;;;7.97;6.88;;;22.60;92.40;;;;;;5096678;28;20027;-58
2022/05/07 10:22:36;;;;;;;6.82;6.28;;;22.50;90.30;;;;;;5096524;28;20028;-58
2022/05/07 10:25:10;;;;;;;8.00;7.20;;;22.50;90.30;;;;;;5096577;28;20509;-58
2022/05/07 10:27:45;;;;;;;7.05;6.35;;;22.80;90.40;;;;;;5096864;28;20020;-58
2022/05/07 10:30:22;;;;;;;7.18;6.47;;;22.80;90.10;;;;;;5096599;28;20078;-58
2022/05/07 10:32:57;;;;;;;7.55;6.85;;;22.70;89.90;;;;;;5096435;28;20028;-58
2022/05/07 10:35:47;;;;;;;7.72;7.00;;;22.50;86.80;;;;;;5096479;28;20555;-58
2022/05/07 10:38:27;;;;;;;7.93;7.22;;;22.20;90.70;;;;;;5096182;28;20020;-58
2022/05/07 10:41:01;;;;;;;5.65;5.20;;;22.10;91.90;;;;;;5096291;28;20024;-58
2022/05/07 10:43:46;;;;;;;8.57;7.68;;;22.10;92.00;;;;;;5096181;28;20058;-58
2022/05/07 10:46:14;;;;;;;7.00;6.30;;;22.20;91.20;;;;;;5096142;28;20099;-58
2022/05/07 10:48:44;;;;;;;7.05;6.55;;;22.30;92.20;;;;;;5096110;28;20486;-58
2022/05/07 10:51:17;;;;;;;6.90;6.20;;;22.40;91.50;;;;;;5096089;28;20047;-58
2022/05/07 10:53:43;;;;;;;8.57;6.85;;;22.40;91.00;;;;;;5096312;28;20042;-58
2022/05/07 10:56:17;;;;;;;6.10;5.60;;;22.30;89.80;;;;;;5096077;28;20498;-58
2022/05/07 10:58:57;;;;;;;5.30;4.80;;;22.40;92.50;;;;;;5095919;28;20471;-58
2022/05/07 11:01:24;;;;;;;6.97;6.28;;;22.50;91.90;;;;;;5096045;28;20086;-58
2022/05/07 11:04:04;;;;;;;6.25;5.65;;;22.50;89.60;;;;;;5096016;28;20024;-58
2022/05/07 11:06:56;;;;;;;6.40;5.80;;;22.50;90.60;;;;;;5095954;28;20359;-58
2022/05/07 11:09:23;;;;;;;7.07;6.45;;;22.80;90.70;;;;;;5092637;28;20111;-58
2022/05/07 11:11:54;;;;;;;7.97;6.43;;;22.80;86.70;;;;;;5095779;28;20020;-58
2022/05/07 11:14:26;;;;;;;7.50;6.78;;;22.70;90.40;;;;;;5095805;28;20016;-58
2022/05/07 11:16:56;;;;;;;6.95;6.35;;;22.50;91.10;;;;;;5095602;28;20042;-58
2022/05/07 11:19:25;;;;;;;7.15;6.43;;;22.70;91.00;;;;;;5095829;28;20021;-58
2022/05/07 11:21:52;;;;;;;7.32;6.60;;;22.90;83.80;;;;;;5095254;28;20032;-58
2022/05/07 11:24:22;;;;;;;6.60;6.00;;;22.80;82.90;;;;;;5094925;28;20016;-58
2022/05/07 11:27:02;;;;;;;7.15;6.45;;;22.80;85.90;;;;;;5095621;28;20020;-58
2022/05/07 11:29:29;;;;;;;7.38;6.65;;;22.80;81.10;;;;;;5095300;28;20055;-58
2022/05/07 11:31:58;;;;;;;6.90;6.32;;;22.70;85.30;;;;;;5095685;28;20024;-58
2022/05/07 11:34:35;;;;;;;7.25;6.65;;;23.00;86.40;;;;;;5095081;28;20165;-58
2022/05/07 11:37:23;;;;;;;6.35;5.75;;;23.10;81.60;;;;;;5095511;28;20020;-58
2022/05/07 11:40:08;;;;;;;6.32;5.78;;;23.20;81.90;;;;;;5095410;28;20028;-58
2022/05/07 11:42:44;;;;;;;7.60;6.97;;;23.30;83.30;;;;;;5095072;28;20033;-58
2022/05/07 11:45:33;;;;;;;6.35;5.78;;;23.20;80.80;;;;;;5095309;28;20107;-58
2022/05/07 11:48:03;;;;;;;6.93;6.43;;;23.30;85.70;;;;;;5095308;28;20442;-58
2022/05/07 11:50:39;;;;;;;6.45;5.95;;;23.50;80.50;;;;;;5094732;28;20025;-58
2022/05/07 11:53:20;;;;;;;6.10;5.60;;;23.70;81.20;;;;;;5095224;28;20031;-58
2022/05/07 11:55:48;;;;;;;7.20;6.43;;;23.70;79.80;;;;;;5094676;28;20563;-58
2022/05/07 11:58:16;;;;;;;6.35;5.80;;;23.90;76.00;;;;;;5094861;28;20108;-58
2022/05/07 12:00:43;;;;;;;7.07;6.38;;;23.80;78.20;;;;;;5094911;28;20024;-58
2022/05/07 12:03:09;;;;;;;7.47;6.25;;;23.40;75.10;;;;;;5094807;28;20064;-58
2022/05/07 12:05:47;;;;;;;6.30;5.80;;;23.40;75.90;;;;;;5094548;28;20073;-58
2022/05/07 12:08:16;;;;;;;6.53;5.95;;;23.40;76.60;;;;;;5094659;28;20606;-58
2022/05/07 12:10:43;;;;;;;6.95;6.32;;;23.50;76.90;;;;;;5094641;28;20019;-58
2022/05/07 12:13:10;;;;;;;5.45;5.05;;;23.50;75.10;;;;;;5094541;28;20027;-58
2022/05/07 12:18:22;;;;;;;8.27;7.00;;;23.70;76.10;;;;;;5094826;28;20047;-58
2022/05/07 12:20:48;;;;;;;6.28;5.75;;;23.30;74.70;;;;;;5094250;28;20562;-58
2022/05/07 12:31:27;;;;;;;6.15;5.47;;;23.80;83.60;;;;;;5094446;28;20027;-58
2022/05/07 12:33:53;;;;;;;5.85;5.35;;;23.80;83.20;;;;;;5094130;28;20078;-58
2022/05/07 12:36:19;;;;;;;8.05;6.60;;;23.80;82.50;;;;;;5094225;28;20028;-59
2022/05/07 12:38:45;;;;;;;5.95;5.45;;;23.90;81.30;;;;;;5094288;28;20382;-58
2022/05/07 12:41:11;;;;;;;5.20;4.80;;;23.90;78.10;;;;;;5094269;28;20020;-58
2022/05/07 12:43:37;;;;;;;6.35;5.85;;;23.90;79.70;;;;;;5094395;28;20024;-58
2022/05/07 12:46:02;;;;;;;5.90;5.40;;;24.10;82.50;;;;;;5093961;28;20390;-58
2022/05/07 12:48:28;;;;;;;7.53;5.72;;;24.20;81.70;;;;;;5093640;28;20020;-58
2022/05/07 12:50:54;;;;;;;5.68;5.20;;;24.40;82.20;;;;;;5094016;28;20092;-58
2022/05/07 12:53:20;;;;;;;6.43;5.93;;;24.40;85.00;;;;;;5093844;28;20028;-58
2022/05/07 12:55:46;;;;;;;6.88;6.28;;;24.50;83.70;;;;;;5093567;28;20032;-58
2022/05/07 12:58:12;;;;;;;6.63;6.13;;;24.50;81.60;;;;;;5093948;28;20073;-58
2022/05/07 13:00:39;;;;;;;6.70;6.10;;;24.50;83.40;;;;;;5093843;28;20023;-58
2022/05/07 13:03:06;;;;;;;7.63;6.93;;;24.50;83.20;;;;;;5093532;28;20043;-58
2022/05/07 13:05:33;;;;;;;6.63;6.13;;;24.60;82.00;;;;;;5093973;28;20078;-58
2022/05/07 13:08:00;;;;;;;6.97;6.47;;;24.70;82.60;;;;;;5093940;28;20028;-58
2022/05/07 13:10:27;;;;;;;7.00;6.43;;;24.80;81.40;;;;;;5093788;28;20073;-59
2022/05/07 13:12:53;;;;;;;7.53;7.03;;;24.90;81.80;;;;;;5093867;28;20024;-58
2022/05/07 13:15:18;;;;;;;8.85;7.95;;;24.90;81.00;;;;;;5093807;28;20500;-58
2022/05/07 13:17:44;;;;;;;7.78;7.03;;;24.90;79.10;;;;;;5093462;28;20443;-58
2022/05/07 13:20:10;;;;;;;8.05;7.28;;;25.10;79.20;;;;;;5093613;28;20031;-58
2022/05/07 13:22:36;;;;;;;9.18;8.35;;;25.20;80.20;;;;;;5093761;28;20032;-58